Time;durP1;ratioP1;P1;durP2;ratioP2;P2;SDS_P1;SDS_P2;PMS_P1;PMS_P2;Temp;Humidity;BMP_temperature;BMP_pressure;BME280_temperature;BME280_humidity;BME280_pressure;Samples;Min_cycle;Max_cycle;Signal;HPM_P1;HPM_P2
2021/06/18 00:01:40;;;;;;;16.63;6.10;;;17.80;78.50;;;;;;5074972;28;19905;-68
2021/06/18 00:04:05;;;;;;;;;;;17.80;78.70;;;;;;5075236;28;20490;-71
2021/06/18 00:06:31;;;;;;;16.52;6.30;;;17.80;78.70;;;;;;5074750;28;19910;-67
2021/06/18 00:08:57;;;;;;;;;;;17.80;78.60;;;;;;5075287;28;20435;-67
2021/06/18 00:11:23;;;;;;;18.10;6.63;;;17.80;78.60;;;;;;5074853;28;19935;-69
2021/06/18 00:13:48;;;;;;;;;;;17.80;79.50;;;;;;5074968;28;20123;-69
2021/06/18 00:16:14;;;;;;;17.75;5.68;;;17.60;79.40;;;;;;5074553;28;19908;-69
2021/06/18 00:18:42;;;;;;;;;;;17.70;79.20;;;;;;5074770;28;20036;-68
2021/06/18 00:21:07;;;;;;;17.33;5.90;;;17.60;79.20;;;;;;5074798;28;19904;-67
2021/06/18 00:23:33;;;;;;;;;;;17.70;79.70;;;;;;5074833;28;20024;-69
2021/06/18 00:25:59;;;;;;;17.65;6.75;;;17.80;79.00;;;;;;5074357;28;19905;-68
2021/06/18 00:28:25;;;;;;;;;;;17.80;78.90;;;;;;5074930;28;20032;-69
2021/06/18 00:30:50;;;;;;;20.05;7.03;;;17.80;79.00;;;;;;5074459;28;20265;-69
2021/06/18 00:33:16;;;;;;;;;;;17.80;78.90;;;;;;5074840;28;20016;-71
2021/06/18 00:35:42;;;;;;;22.70;6.70;;;17.80;78.90;;;;;;5074008;28;19936;-68
2021/06/18 00:38:08;;;;;;;;;;;17.80;79.00;;;;;;5074430;28;20025;-68
2021/06/18 00:40:34;;;;;;;22.02;6.65;;;17.80;79.40;;;;;;5074057;28;20296;-67
2021/06/18 00:42:59;;;;;;;;;;;17.70;79.80;;;;;;5074569;28;20016;-69
2021/06/18 00:45:25;;;;;;;20.75;6.78;;;17.70;80.50;;;;;;5073961;28;19904;-69
2021/06/18 00:47:54;;;;;;;;;;;17.70;80.60;;;;;;5074585;28;20423;-71
2021/06/18 00:50:21;;;;;;;20.00;6.50;;;17.70;80.60;;;;;;5074285;28;19912;-71
2021/06/18 00:52:47;;;;;;;18.55;7.18;;;17.70;80.60;;;;;;5073802;28;20021;-69
2021/06/18 00:55:13;;;;;;;15.20;6.88;;;17.70;80.80;;;;;;5073746;28;20024;-69
2021/06/18 00:57:39;;;;;;;;;;;17.70;80.50;;;;;;5073410;28;20021;-71
2021/06/18 01:00:10;;;;;;;18.15;7.25;;;17.70;80.80;;;;;;5073631;28;19935;-68
2021/06/18 01:02:37;;;;;;;21.00;8.80;;;17.70;81.00;;;;;;5073999;28;20023;-68
2021/06/18 01:05:05;;;;;;;21.17;8.63;;;17.60;81.10;;;;;;5073765;28;20043;-67
2021/06/18 01:07:47;;;;;;;24.38;9.82;;;17.60;81.30;;;;;;5073735;28;20099;-66
2021/06/18 01:10:19;;;;;;;20.95;9.15;;;17.60;81.30;;;;;;5073536;28;20020;-67
2021/06/18 01:13:12;;;;;;;23.13;9.07;;;17.60;81.30;;;;;;5073714;28;20078;-70
2021/06/18 01:16:05;;;;;;;19.15;8.40;;;17.50;81.30;;;;;;5073573;28;20472;-66
2021/06/18 01:18:41;;;;;;;21.08;8.75;;;17.50;81.40;;;;;;5073560;28;20047;-70
2021/06/18 01:21:20;;;;;;;19.00;7.82;;;17.50;81.30;;;;;;5073403;28;20466;-69
2021/06/18 01:23:49;;;;;;;23.38;7.80;;;17.60;80.90;;;;;;5071952;28;20031;-70
2021/06/18 01:26:24;;;;;;;20.38;8.55;;;17.50;80.90;;;;;;5073297;28;20105;-67
2021/06/18 01:28:56;;;;;;;22.33;8.95;;;17.60;81.10;;;;;;5073618;28;20025;-68
2021/06/18 01:31:25;;;;;;;23.83;8.93;;;17.60;81.00;;;;;;5073515;28;20430;-68
2021/06/18 01:33:58;;;;;;;19.98;9.27;;;17.60;81.50;;;;;;5073202;28;20112;-68
2021/06/18 01:36:25;;;;;;;23.30;10.25;;;17.40;82.00;;;;;;5073070;28;20044;-68
2021/06/18 01:38:53;;;;;;;24.55;10.25;;;17.40;82.60;;;;;;5073543;28;20051;-68
2021/06/18 01:41:22;;;;;;;22.38;10.63;;;17.40;82.70;;;;;;5073497;28;20040;-68
2021/06/18 01:43:50;;;;;;;24.15;11.02;;;17.40;82.60;;;;;;5073191;28;20384;-70
2021/06/18 01:46:21;;;;;;;23.75;11.23;;;17.50;82.30;;;;;;5073129;28;20020;-71
2021/06/18 01:48:52;;;;;;;26.42;12.60;;;17.50;82.00;;;;;;5073120;28;20074;-69
2021/06/18 01:51:19;;;;;;;28.00;13.80;;;17.50;82.30;;;;;;5073057;28;20024;-68
2021/06/18 01:53:48;;;;;;;24.73;12.52;;;17.40;82.50;;;;;;5073271;28;20031;-70
2021/06/18 01:56:18;;;;;;;30.20;13.48;;;17.40;82.60;;;;;;5073023;28;20056;-69
2021/06/18 01:58:48;;;;;;;26.83;12.88;;;17.40;83.20;;;;;;5073449;28;20021;-68
2021/06/18 02:01:15;;;;;;;28.27;13.90;;;17.40;83.40;;;;;;5073134;28;20025;-68
2021/06/18 02:03:45;;;;;;;25.80;12.57;;;17.40;83.40;;;;;;5073065;28;20020;-68
2021/06/18 02:06:13;;;;;;;28.33;13.02;;;17.40;84.00;;;;;;5072964;28;20056;-70
2021/06/18 02:08:40;;;;;;;25.50;12.43;;;17.40;83.70;;;;;;5072901;28;20024;-69
2021/06/18 02:11:07;;;;;;;27.38;12.52;;;17.60;83.10;;;;;;5076869;28;20017;-67
2021/06/18 02:13:34;;;;;;;23.48;11.82;;;17.50;83.30;;;;;;5077053;28;20078;-72
2021/06/18 02:16:01;;;;;;;24.55;11.88;;;17.40;83.90;;;;;;5076880;28;20035;-69
2021/06/18 02:18:31;;;;;;;26.20;12.77;;;17.50;83.40;;;;;;5076726;28;20043;-70
2021/06/18 02:20:59;;;;;;;24.35;11.30;;;17.60;83.50;;;;;;5076758;28;20021;-73
2021/06/18 02:23:31;;;;;;;24.52;12.70;;;17.60;83.60;;;;;;5076678;28;20025;-67
2021/06/18 02:25:59;;;;;;;22.70;11.10;;;17.60;83.50;;;;;;5076767;28;20032;-69
2021/06/18 02:28:26;;;;;;;20.92;10.65;;;17.60;83.50;;;;;;5076653;28;20021;-68
2021/06/18 02:30:53;;;;;;;20.77;10.60;;;17.50;84.40;;;;;;5076702;28;20033;-67
2021/06/18 02:33:19;;;;;;;19.73;10.43;;;17.50;84.10;;;;;;5076823;28;20020;-70
2021/06/18 02:35:45;;;;;;;;;;;17.50;84.60;;;;;;5076838;28;20060;-67
2021/06/18 02:38:12;;;;;;;19.90;10.32;;;17.40;84.70;;;;;;5076662;28;19912;-69
2021/06/18 02:40:40;;;;;;;20.05;10.32;;;17.40;85.00;;;;;;5076704;28;20481;-67
2021/06/18 02:43:06;;;;;;;19.73;9.93;;;17.40;85.40;;;;;;5076431;28;20048;-68
2021/06/18 02:45:32;;;;;;;16.70;8.55;;;17.50;85.00;;;;;;5076656;28;20019;-67
2021/06/18 02:48:14;;;;;;;17.40;9.52;;;17.50;85.00;;;;;;5076462;28;20025;-69
2021/06/18 02:50:58;;;;;;;15.57;9.18;;;17.50;85.00;;;;;;5076610;28;20027;-67
2021/06/18 02:53:47;;;;;;;16.35;8.85;;;17.50;85.30;;;;;;5076598;28;20434;-68
2021/06/18 02:56:31;;;;;;;17.27;9.02;;;17.50;85.60;;;;;;5076192;28;20029;-69
2021/06/18 02:59:07;;;;;;;15.05;8.73;;;17.50;85.50;;;;;;5076575;28;20031;-71
2021/06/18 03:01:38;;;;;;;15.60;8.68;;;17.40;85.90;;;;;;5076300;28;20078;-68
2021/06/18 03:04:04;;;;;;;15.50;8.30;;;17.50;85.90;;;;;;5076139;28;20503;-69
2021/06/18 03:06:34;;;;;;;13.20;7.15;;;17.50;85.40;;;;;;5076010;28;20495;-69
2021/06/18 03:09:03;;;;;;;13.77;6.90;;;17.60;85.40;;;;;;5076150;28;20062;-70
2021/06/18 03:11:30;;;;;;;15.82;7.78;;;17.70;85.10;;;;;;5075937;28;20012;-66
2021/06/18 03:14:01;;;;;;;12.55;7.30;;;17.60;85.60;;;;;;5075890;28;20028;-71
2021/06/18 03:16:29;;;;;;;12.38;6.68;;;17.60;86.00;;;;;;5075829;28;20100;-67
2021/06/18 03:18:59;;;;;;;14.57;7.35;;;17.60;85.40;;;;;;5075738;28;20062;-68
2021/06/18 03:21:26;;;;;;;11.65;6.15;;;17.60;85.20;;;;;;5074850;28;20026;-69
2021/06/18 03:23:53;;;;;;;14.43;6.10;;;17.60;85.20;;;;;;5075616;28;20020;-70
2021/06/18 03:26:19;;;;;;;12.60;5.97;;;17.60;85.90;;;;;;5075681;28;20028;-67
2021/06/18 03:28:46;;;;;;;12.18;5.50;;;17.70;85.70;;;;;;5075660;28;20085;-68
2021/06/18 03:31:13;;;;;;;11.82;5.40;;;17.60;85.00;;;;;;5075674;28;20048;-68
2021/06/18 03:33:41;;;;;;;10.45;5.38;;;17.70;85.40;;;;;;5075545;28;20024;-71
2021/06/18 03:36:08;;;;;;;11.43;5.05;;;17.50;86.00;;;;;;5075283;28;20047;-69
2021/06/18 03:38:37;;;;;;;11.00;4.90;;;17.60;86.10;;;;;;5075379;28;20029;-68
2021/06/18 03:41:03;;;;;;;9.43;4.88;;;17.60;86.00;;;;;;5075412;28;20023;-69
2021/06/18 03:43:28;;;;;;;;;;;17.70;85.30;;;;;;5075812;28;20016;-68
2021/06/18 03:46:00;;;;;;;9.40;4.30;;;17.60;85.70;;;;;;5075282;28;19908;-68
2021/06/18 03:48:28;;;;;;;9.35;4.40;;;17.70;85.60;;;;;;5075612;28;20468;-67
2021/06/18 03:50:54;;;;;;;9.90;4.13;;;17.60;85.70;;;;;;5075221;28;20020;-69
2021/06/18 03:53:19;;;;;;;;;;;17.60;85.80;;;;;;5075658;28;20029;-71
2021/06/18 03:55:47;;;;;;;7.78;3.40;;;17.60;86.20;;;;;;5075345;28;19905;-71
2021/06/18 03:58:13;;;;;;;7.15;3.40;;;17.60;85.70;;;;;;5075311;28;20028;-70
2021/06/18 04:00:41;;;;;;;;;;;17.70;85.70;;;;;;5075459;28;20054;-67
2021/06/18 04:03:08;;;;;;;7.53;3.53;;;17.70;85.40;;;;;;5075113;28;20276;-68
2021/06/18 04:05:37;;;;;;;9.00;3.88;;;17.60;85.80;;;;;;5074893;28;20442;-69
2021/06/18 04:08:03;;;;;;;7.15;3.67;;;17.60;86.00;;;;;;5074921;28;20082;-69
2021/06/18 04:10:30;;;;;;;6.50;3.40;;;17.50;86.00;;;;;;5074843;28;20023;-70
2021/06/18 04:12:57;;;;;;;7.97;3.90;;;17.50;86.10;;;;;;5074928;28;20027;-68
2021/06/18 04:15:24;;;;;;;7.85;3.50;;;17.60;85.90;;;;;;5074732;28;20031;-68
2021/06/18 04:17:51;;;;;;;7.28;3.65;;;17.60;85.50;;;;;;5074973;28;20108;-68
2021/06/18 04:20:20;;;;;;;7.75;3.75;;;17.50;85.70;;;;;;5074644;28;20013;-67
2021/06/18 04:22:48;;;;;;;7.50;3.80;;;17.60;85.50;;;;;;5074445;28;20389;-67
2021/06/18 04:25:14;;;;;;;7.13;3.58;;;17.60;85.70;;;;;;5073263;28;20020;-70
2021/06/18 04:27:40;;;;;;;7.72;3.60;;;17.70;85.60;;;;;;5074909;28;20504;-71
2021/06/18 04:30:07;;;;;;;;;;;17.70;85.70;;;;;;5074855;28;20025;-70
2021/06/18 04:32:33;;;;;;;7.82;3.60;;;17.70;85.80;;;;;;5074436;28;19950;-68
2021/06/18 04:34:58;;;;;;;;;;;17.70;85.50;;;;;;5074616;28;20028;-69
2021/06/18 04:37:24;;;;;;;7.65;3.90;;;17.60;85.60;;;;;;5074201;28;19916;-68
2021/06/18 04:39:49;;;;;;;;;;;17.60;86.30;;;;;;5074663;28;20021;-70
2021/06/18 04:42:15;;;;;;;7.93;3.80;;;17.60;86.30;;;;;;5074466;28;19904;-69
2021/06/18 04:44:41;;;;;;;;;;;17.60;86.30;;;;;;5074593;28;20025;-68
2021/06/18 04:47:07;;;;;;;8.80;4.38;;;17.50;86.50;;;;;;5074130;28;20288;-67
2021/06/18 04:49:32;;;;;;;;;;;17.50;86.60;;;;;;5074349;28;20029;-68
2021/06/18 04:51:58;;;;;;;8.98;4.30;;;17.50;86.80;;;;;;5074188;28;19904;-68
2021/06/18 04:54:24;;;;;;;;;;;17.50;86.50;;;;;;5074384;28;20024;-69
2021/06/18 04:56:50;;;;;;;8.30;4.18;;;17.50;86.50;;;;;;5074039;28;19908;-69
2021/06/18 04:59:19;;;;;;;;;;;17.40;86.90;;;;;;5074323;28;20020;-68
2021/06/18 05:01:45;;;;;;;10.02;4.43;;;17.50;87.20;;;;;;5073864;28;19935;-67
2021/06/18 05:04:11;;;;;;;8.48;4.25;;;17.50;87.00;;;;;;5089431;28;20373;-68
2021/06/18 05:06:36;;;;;;;;;;;17.60;86.80;;;;;;5074253;28;20027;-69
2021/06/18 05:09:04;;;;;;;8.98;4.15;;;17.50;86.70;;;;;;5073701;28;19904;-68
2021/06/18 05:11:30;;;;;;;8.05;4.13;;;17.60;87.00;;;;;;5073996;28;20028;-68
2021/06/18 05:13:56;;;;;;;;;;;17.60;86.60;;;;;;5074224;28;20024;-69
2021/06/18 05:16:21;;;;;;;8.65;4.25;;;17.60;86.70;;;;;;5073704;28;19904;-66
2021/06/18 05:18:47;;;;;;;;;;;17.60;86.80;;;;;;5073916;28;20032;-70
2021/06/18 05:21:13;;;;;;;8.23;3.60;;;17.60;86.50;;;;;;5073550;28;19912;-70
2021/06/18 05:23:38;;;;;;;;;;;17.70;86.40;;;;;;5073874;28;20020;-69
2021/06/18 05:26:04;;;;;;;7.90;3.70;;;17.60;86.30;;;;;;5073452;28;20257;-70
2021/06/18 05:28:30;;;;;;;;;;;17.60;86.50;;;;;;5073875;28;20024;-70
2021/06/18 05:30:56;;;;;;;8.00;3.42;;;17.70;86.70;;;;;;5073693;28;19926;-69
2021/06/18 05:33:21;;;;;;;;;;;17.70;86.10;;;;;;5073848;28;20025;-66
2021/06/18 05:35:47;;;;;;;6.68;2.78;;;17.80;85.60;;;;;;5073365;28;19995;-68
2021/06/18 05:38:13;;;;;;;;;;;17.90;85.60;;;;;;5073736;28;20036;-70
2021/06/18 05:40:42;;;;;;;6.60;2.83;;;17.90;85.30;;;;;;5073321;28;19904;-68
2021/06/18 05:43:08;;;;;;;7.53;2.90;;;17.80;85.80;;;;;;5073445;28;20566;-68
2021/06/18 05:45:36;;;;;;;5.95;2.40;;;17.90;86.10;;;;;;5072731;28;20074;-69
2021/06/18 05:48:03;;;;;;;5.45;2.50;;;18.10;85.50;;;;;;5073200;28;20017;-69
2021/06/18 05:50:29;;;;;;;4.55;2.20;;;18.10;84.90;;;;;;5073434;28;20020;-70
2021/06/18 05:52:55;;;;;;;6.18;2.55;;;18.10;84.90;;;;;;5073445;28;20032;-69
2021/06/18 05:55:20;;;;;;;5.75;2.42;;;18.20;84.50;;;;;;5073083;28;20040;-67
2021/06/18 05:57:49;;;;;;;5.68;2.40;;;18.40;84.00;;;;;;5072992;28;20457;-70
2021/06/18 06:00:16;;;;;;;4.93;2.25;;;18.30;83.90;;;;;;5073206;28;20040;-69
2021/06/18 06:02:42;;;;;;;5.45;2.10;;;18.50;83.70;;;;;;5073118;28;20104;-68
2021/06/18 06:05:08;;;;;;;5.28;2.00;;;18.60;82.90;;;;;;5073058;28;20105;-70
2021/06/18 06:07:34;;;;;;;4.60;2.30;;;18.70;83.10;;;;;;5073029;28;20025;-67
2021/06/18 06:10:00;;;;;;;4.03;1.70;;;18.80;82.50;;;;;;5073017;28;20029;-69
2021/06/18 06:12:25;;;;;;;4.57;2.22;;;18.80;82.30;;;;;;5073028;28;20056;-67
2021/06/18 06:14:51;;;;;;;5.13;2.00;;;18.80;82.10;;;;;;5072966;28;20029;-67
2021/06/18 06:17:17;;;;;;;6.90;2.03;;;18.90;82.00;;;;;;5072843;28;20077;-72
2021/06/18 06:19:43;;;;;;;5.20;2.10;;;19.10;81.90;;;;;;5073116;28;20016;-67
2021/06/18 06:22:09;;;;;;;3.70;1.90;;;19.00;81.20;;;;;;5072896;28;20101;-69
2021/06/18 06:24:36;;;;;;;4.03;1.90;;;19.20;81.10;;;;;;5072929;28;20032;-68
2021/06/18 06:27:02;;;;;;;5.95;2.05;;;19.20;81.00;;;;;;5072900;28;20021;-69
2021/06/18 06:29:28;;;;;;;3.92;2.00;;;19.30;80.40;;;;;;5072812;28;20396;-71
2021/06/18 06:31:54;;;;;;;4.93;1.90;;;19.20;81.10;;;;;;5072846;28;20035;-68
2021/06/18 06:34:20;;;;;;;4.40;2.00;;;19.20;81.00;;;;;;5072817;28;20029;-70
2021/06/18 06:36:45;;;;;;;5.43;2.17;;;19.30;81.10;;;;;;5072507;28;20407;-70
2021/06/18 06:39:11;;;;;;;4.25;1.88;;;19.30;80.60;;;;;;5072721;28;20012;-70
2021/06/18 06:41:37;;;;;;;3.15;1.60;;;19.40;79.90;;;;;;5072794;28;20020;-70
2021/06/18 06:44:04;;;;;;;3.15;1.60;;;19.60;79.40;;;;;;5072427;28;20082;-68
2021/06/18 06:46:30;;;;;;;4.78;1.60;;;19.80;78.60;;;;;;5072904;28;20025;-69
2021/06/18 06:48:55;;;;;;;2.92;1.60;;;19.90;78.30;;;;;;5072940;28;20499;-69
2021/06/18 06:51:21;;;;;;;2.78;1.60;;;20.20;77.50;;;;;;5072783;28;20012;-70
2021/06/18 06:53:47;;;;;;;2.55;1.30;;;20.30;76.70;;;;;;5072616;28;20090;-67
2021/06/18 06:56:14;;;;;;;6.07;1.65;;;20.40;76.90;;;;;;5073496;28;20021;-66
2021/06/18 06:58:42;;;;;;;2.88;1.30;;;20.70;75.20;;;;;;5076513;28;20021;-71
2021/06/18 07:01:08;;;;;;;1.90;1.33;;;21.00;74.20;;;;;;5091811;28;20422;-71
2021/06/18 07:03:34;;;;;;;2.85;1.27;;;21.20;73.70;;;;;;5076145;28;20472;-68
2021/06/18 07:05:59;;;;;;;3.55;1.25;;;21.30;72.80;;;;;;5075814;28;20027;-69
2021/06/18 07:08:25;;;;;;;2.80;1.30;;;21.60;72.40;;;;;;5075981;28;20029;-69
2021/06/18 07:10:56;;;;;;;2.25;1.20;;;21.80;70.70;;;;;;5075951;28;20051;-69
2021/06/18 07:13:23;;;;;;;2.63;1.30;;;22.30;69.80;;;;;;5091009;28;20111;-70
2021/06/18 07:15:53;;;;;;;2.17;1.10;;;22.60;69.20;;;;;;5075803;28;20035;-70
2021/06/18 07:18:19;;;;;;;1.77;1.10;;;22.60;68.30;;;;;;5074635;28;20523;-69
2021/06/18 07:20:46;;;;;;;3.35;1.10;;;22.60;68.60;;;;;;5075769;28;20576;-67
2021/06/18 07:23:13;;;;;;;1.60;1.20;;;22.70;67.80;;;;;;5075861;28;20495;-70
2021/06/18 07:25:42;;;;;;;3.28;1.10;;;22.80;67.50;;;;;;5074570;28;20021;-69
2021/06/18 07:28:08;;;;;;;2.70;1.10;;;22.70;67.80;;;;;;5075089;28;20025;-68
2021/06/18 07:30:35;;;;;;;1.40;0.93;;;22.40;68.70;;;;;;5073874;28;20021;-72
2021/06/18 07:33:00;;;;;;;1.30;0.95;;;22.10;69.30;;;;;;5075603;28;20109;-69
2021/06/18 07:35:27;;;;;;;1.55;1.00;;;22.00;70.30;;;;;;5075383;28;20079;-69
2021/06/18 07:37:53;;;;;;;1.50;0.90;;;21.60;70.40;;;;;;5090798;28;20044;-69
2021/06/18 07:40:19;;;;;;;3.78;0.90;;;21.30;72.50;;;;;;5075457;28;20009;-67
2021/06/18 07:42:46;;;;;;;1.88;1.00;;;21.30;72.60;;;;;;5075369;28;20055;-66
2021/06/18 07:45:13;;;;;;;1.48;0.88;;;21.40;72.10;;;;;;5075382;28;20021;-70
2021/06/18 07:47:40;;;;;;;0.75;0.73;;;21.30;72.60;;;;;;5075432;28;20028;-70
2021/06/18 07:50:09;;;;;;;1.42;1.00;;;21.40;72.50;;;;;;5075033;28;20028;-67
2021/06/18 07:52:35;;;;;;;1.58;1.00;;;21.30;71.80;;;;;;5075424;28;20099;-69
2021/06/18 07:55:02;;;;;;;1.58;0.80;;;21.10;72.80;;;;;;5074981;28;20020;-67
2021/06/18 07:57:28;;;;;;;2.15;1.00;;;21.10;72.90;;;;;;5075036;28;20047;-70
2021/06/18 07:59:54;;;;;;;1.27;0.90;;;21.10;72.90;;;;;;5075209;28;20504;-68
2021/06/18 08:02:20;;;;;;;1.30;0.88;;;21.10;73.90;;;;;;5075021;28;20484;-69
2021/06/18 08:04:46;;;;;;;1.17;1.08;;;21.20;74.00;;;;;;5074767;28;20029;-70
2021/06/18 08:07:12;;;;;;;1.05;0.90;;;21.10;72.50;;;;;;5074619;28;20442;-67
2021/06/18 08:09:37;;;;;;;2.63;1.20;;;21.00;74.10;;;;;;5074815;28;20503;-69
2021/06/18 08:12:03;;;;;;;1.30;1.05;;;20.80;74.00;;;;;;5074753;28;20021;-68
2021/06/18 08:14:29;;;;;;;2.35;1.10;;;20.70;75.20;;;;;;5075255;28;20024;-68
2021/06/18 08:16:55;;;;;;;1.13;1.00;;;20.60;74.30;;;;;;5074839;28;20028;-70
2021/06/18 08:19:21;;;;;;;2.83;1.10;;;20.60;74.80;;;;;;5074964;28;20024;-69
2021/06/18 08:21:47;;;;;;;2.60;1.00;;;20.40;75.20;;;;;;5074609;28;20349;-68
2021/06/18 08:24:13;;;;;;;3.25;1.17;;;20.30;75.60;;;;;;5074566;28;20025;-69
2021/06/18 08:26:40;;;;;;;3.33;1.30;;;20.30;75.90;;;;;;5074573;28;20048;-70
2021/06/18 08:29:06;;;;;;;2.20;1.10;;;20.40;76.10;;;;;;5074683;28;20066;-69
2021/06/18 08:31:32;;;;;;;1.35;1.08;;;20.60;75.90;;;;;;5074542;28;20020;-69
2021/06/18 08:33:58;;;;;;;1.75;1.05;;;20.60;76.40;;;;;;5074420;28;20029;-70
2021/06/18 08:36:24;;;;;;;3.58;1.30;;;20.60;75.80;;;;;;5074102;28;20032;-70
2021/06/18 08:38:50;;;;;;;5.10;2.50;;;20.40;76.30;;;;;;5073979;28;20028;-68
2021/06/18 08:41:16;;;;;;;1.27;0.90;;;20.40;76.50;;;;;;5074220;28;20031;-69
2021/06/18 08:43:44;;;;;;;1.67;0.98;;;20.50;76.10;;;;;;5074180;28;20029;-70
2021/06/18 08:46:10;;;;;;;2.25;1.00;;;20.50;76.00;;;;;;5074245;28;20065;-69
2021/06/18 08:48:35;;;;;;;2.25;1.30;;;20.50;76.90;;;;;;5074103;28;20029;-70
2021/06/18 08:51:02;;;;;;;1.40;1.20;;;20.40;77.00;;;;;;5073981;28;20025;-67
2021/06/18 08:53:33;;;;;;;2.78;1.20;;;20.60;76.40;;;;;;5074088;28;20036;-67
2021/06/18 08:55:59;;;;;;;4.10;1.45;;;20.60;76.10;;;;;;5073926;28;20021;-70
2021/06/18 08:58:25;;;;;;;1.70;1.30;;;20.70;75.50;;;;;;5073827;28;20369;-69
2021/06/18 09:00:52;;;;;;;3.58;1.50;;;20.80;75.40;;;;;;5073959;28;20028;-68
2021/06/18 09:03:41;;;;;;;3.70;1.40;;;20.80;75.00;;;;;;5073868;28;20017;-68
2021/06/18 09:06:29;;;;;;;6.97;2.08;;;20.80;75.40;;;;;;5073869;28;20021;-67
2021/06/18 09:09:14;;;;;;;6.97;2.28;;;20.80;75.20;;;;;;5074171;28;20024;-69
2021/06/18 09:11:40;;;;;;;;;;;20.60;75.60;;;;;;5074384;28;20480;-67
2021/06/18 09:14:21;;;;;;;3.67;1.90;;;20.60;75.90;;;;;;5073704;28;19987;-69
2021/06/18 09:17:07;;;;;;;3.75;1.75;;;20.40;75.70;;;;;;5073534;28;20481;-68
2021/06/18 09:19:35;;;;;;;3.33;1.83;;;20.50;76.30;;;;;;5072944;28;20103;-67
2021/06/18 09:22:04;;;;;;;4.90;2.10;;;20.50;76.40;;;;;;5073558;28;20017;-68
2021/06/18 09:24:33;;;;;;;13.63;4.35;;;20.30;76.40;;;;;;5073542;28;20085;-67
2021/06/18 09:27:00;;;;;;;11.38;4.50;;;20.20;76.60;;;;;;5073709;28;20036;-70
2021/06/18 09:29:27;;;;;;;6.95;3.55;;;20.00;77.30;;;;;;5073743;28;20035;-70
2021/06/18 09:31:58;;;;;;;6.70;2.95;;;20.00;77.50;;;;;;5073448;28;20024;-69
2021/06/18 09:37:38;;;;;;;10.90;5.38;;;20.00;78.00;;;;;;5073086;28;20040;-72
2021/06/18 09:40:18;;;;;;;9.43;4.50;;;20.30;77.30;;;;;;5072736;28;20048;-70
2021/06/18 09:42:47;;;;;;;10.25;3.85;;;20.50;76.00;;;;;;5073781;28;20097;-68
2021/06/18 09:45:16;;;;;;;7.75;2.92;;;20.60;76.30;;;;;;5073431;28;20063;-70
2021/06/18 09:47:42;;;;;;;7.20;2.67;;;20.60;75.60;;;;;;5073382;28;20059;-69
2021/06/18 09:50:14;;;;;;;8.05;3.53;;;20.50;76.00;;;;;;5073404;28;20028;-70
2021/06/18 09:52:41;;;;;;;10.45;5.00;;;20.40;75.60;;;;;;5073115;28;20028;-69
2021/06/18 09:55:08;;;;;;;13.05;4.53;;;20.40;75.50;;;;;;5073569;28;20080;-71
2021/06/18 09:57:41;;;;;;;8.00;3.33;;;20.30;75.30;;;;;;5073159;28;20029;-69
2021/06/18 10:00:12;;;;;;;9.93;3.33;;;20.30;75.70;;;;;;5073126;28;20590;-68
2021/06/18 10:02:39;;;;;;;4.97;2.00;;;20.30;76.00;;;;;;5073055;28;20391;-70
2021/06/18 10:05:11;;;;;;;6.43;2.60;;;20.40;75.90;;;;;;5073030;28;20027;-70
2021/06/18 10:07:38;;;;;;;9.98;3.78;;;20.50;75.30;;;;;;5073183;28;20028;-73
2021/06/18 10:10:07;;;;;;;14.50;4.70;;;20.50;75.50;;;;;;5073050;28;20056;-68
2021/06/18 10:12:33;;;;;;;12.60;4.57;;;20.60;74.70;;;;;;5073009;28;20024;-70
2021/06/18 10:15:06;;;;;;;8.80;3.20;;;20.70;74.60;;;;;;5073035;28;20039;-67
2021/06/18 10:17:32;;;;;;;6.45;2.42;;;20.90;72.50;;;;;;5073202;28;20104;-71
2021/06/18 10:19:59;;;;;;;6.70;2.20;;;21.10;73.20;;;;;;5073024;28;20560;-72
2021/06/18 10:22:27;;;;;;;6.18;2.20;;;21.60;71.60;;;;;;5072827;28;20078;-68
2021/06/18 10:25:04;;;;;;;5.60;1.80;;;21.80;70.10;;;;;;5072920;28;20021;-70
2021/06/18 10:27:44;;;;;;;5.65;2.00;;;22.10;69.90;;;;;;5071350;28;20027;-68
2021/06/18 10:30:28;;;;;;;3.92;1.80;;;22.30;69.60;;;;;;5073798;28;20031;-69
2021/06/18 10:32:57;;;;;;;4.00;1.70;;;22.90;68.50;;;;;;5076710;28;20120;-68
2021/06/18 10:35:41;;;;;;;4.85;1.80;;;23.10;66.60;;;;;;5076315;28;20036;-69
2021/06/18 10:38:26;;;;;;;7.55;2.03;;;23.50;65.80;;;;;;5075298;28;20044;-71
2021/06/18 10:40:53;;;;;;;3.97;1.80;;;23.00;65.80;;;;;;5077179;28;20036;-70
2021/06/18 10:43:20;;;;;;;6.57;1.70;;;22.80;67.30;;;;;;5071935;28;20017;-71
2021/06/18 10:46:04;;;;;;;8.23;2.05;;;22.50;67.30;;;;;;5068792;28;20078;-67
2021/06/18 10:49:03;;;;;;;6.90;2.10;;;22.30;67.80;;;;;;5076511;28;20020;-70
2021/06/18 10:51:34;;;;;;;8.23;2.60;;;21.60;69.40;;;;;;5068610;28;20033;-68
2021/06/18 10:54:11;;;;;;;8.27;2.67;;;21.30;70.80;;;;;;5076438;28;20028;-66
2021/06/18 10:56:47;;;;;;;9.55;3.05;;;21.20;71.50;;;;;;5076311;28;20025;-68
2021/06/18 10:59:26;;;;;;;9.88;3.28;;;21.00;71.60;;;;;;5076718;28;20154;-70
2021/06/18 11:01:52;;;;;;;12.38;4.47;;;20.70;73.00;;;;;;5076421;28;20027;-70
2021/06/18 11:04:42;;;;;;;8.98;3.45;;;20.60;73.10;;;;;;5076312;28;20427;-70
2021/06/18 11:07:28;;;;;;;10.23;3.85;;;20.60;73.40;;;;;;5074559;28;20028;-67
2021/06/18 11:09:55;;;;;;;9.38;3.38;;;20.70;73.70;;;;;;5076221;28;20036;-67
2021/06/18 11:12:27;;;;;;;9.07;3.47;;;21.00;73.30;;;;;;5075992;28;20025;-68
2021/06/18 11:15:18;;;;;;;10.52;3.80;;;21.30;72.30;;;;;;5075991;28;20433;-71
2021/06/18 11:17:58;;;;;;;11.00;4.03;;;21.60;71.20;;;;;;5077820;28;20078;-67
2021/06/18 11:20:49;;;;;;;11.73;3.70;;;21.50;70.70;;;;;;5075997;28;20495;-68
2021/06/18 11:23:35;;;;;;;12.80;4.28;;;21.60;70.10;;;;;;5075983;28;20048;-69
2021/06/18 11:26:04;;;;;;;12.75;4.90;;;21.60;70.60;;;;;;5075780;28;20020;-68
2021/06/18 11:28:36;;;;;;;12.18;5.05;;;21.60;70.00;;;;;;5075776;28;20032;-68
2021/06/18 11:31:21;;;;;;;11.07;4.57;;;21.30;70.20;;;;;;5076088;28;20029;-68
2021/06/18 11:33:54;;;;;;;;;;;21.30;71.20;;;;;;5076022;28;20021;-69
2021/06/18 11:36:24;;;;;;;11.43;5.35;;;20.80;70.80;;;;;;5075391;28;19912;-70
2021/06/18 11:38:59;;;;;;;13.02;5.75;;;20.50;73.10;;;;;;5074150;28;20409;-70
2021/06/18 11:41:30;;;;;;;13.27;5.18;;;20.40;73.30;;;;;;5073715;28;20021;-72
2021/06/18 11:43:59;;;;;;;12.80;6.07;;;20.40;74.20;;;;;;5075317;28;20027;-68
2021/06/18 11:46:27;;;;;;;13.05;6.22;;;20.30;73.80;;;;;;5075408;28;20077;-70
2021/06/18 11:48:57;;;;;;;13.45;6.93;;;20.00;73.60;;;;;;5075379;28;20077;-69
2021/06/18 11:51:26;;;;;;;12.38;6.13;;;19.90;74.10;;;;;;5075272;28;20028;-68
2021/06/18 11:53:52;;;;;;;12.13;5.85;;;19.70;75.30;;;;;;5075460;28;20027;-69
2021/06/18 11:56:18;;;;;;;15.52;6.05;;;19.80;75.90;;;;;;5075155;28;20024;-70
2021/06/18 11:58:46;;;;;;;11.77;5.13;;;20.10;75.40;;;;;;5075172;28;20052;-70
2021/06/18 12:01:15;;;;;;;13.88;5.40;;;20.20;75.00;;;;;;5075109;28;20100;-69
2021/06/18 12:03:45;;;;;;;16.35;6.43;;;20.20;74.40;;;;;;5074958;28;20034;-69
2021/06/18 12:06:18;;;;;;;14.80;6.18;;;20.10;74.30;;;;;;5075103;28;20028;-68
2021/06/18 12:09:10;;;;;;;14.38;6.60;;;19.60;75.50;;;;;;5074969;28;20024;-69
2021/06/18 12:11:56;;;;;;;17.08;6.95;;;19.40;76.30;;;;;;5075046;28;20029;-68
2021/06/18 12:14:22;;;;;;;14.27;6.32;;;19.30;76.10;;;;;;5074998;28;20504;-67
2021/06/18 12:16:50;;;;;;;13.18;5.68;;;19.20;76.70;;;;;;5074735;28;20017;-70
2021/06/18 12:19:30;;;;;;;13.07;6.03;;;19.40;76.40;;;;;;5075023;28;20384;-68
2021/06/18 12:22:09;;;;;;;15.30;5.72;;;19.80;75.50;;;;;;5074745;28;20027;-69
2021/06/18 12:24:46;;;;;;;13.32;5.80;;;20.00;74.70;;;;;;5074753;28;20484;-68
2021/06/18 12:27:23;;;;;;;14.85;6.72;;;20.10;74.60;;;;;;5074788;28;20024;-70
2021/06/18 12:29:55;;;;;;;13.63;5.40;;;20.20;73.10;;;;;;5074704;28;20038;-68
2021/06/18 12:32:30;;;;;;;12.25;5.32;;;20.20;73.60;;;;;;5074526;28;20103;-69
2021/06/18 12:35:04;;;;;;;15.57;6.07;;;20.60;73.10;;;;;;5074395;28;20078;-69
2021/06/18 12:37:36;;;;;;;12.52;5.60;;;20.50;72.00;;;;;;5074621;28;20047;-70
2021/06/18 12:40:14;;;;;;;13.07;6.03;;;20.80;72.10;;;;;;5074328;28;20070;-70
2021/06/18 12:42:48;;;;;;;12.68;5.57;;;21.00;70.80;;;;;;5074332;28;20028;-70
2021/06/18 12:45:29;;;;;;;16.02;5.40;;;20.80;70.20;;;;;;5074368;28;20066;-70
2021/06/18 12:48:09;;;;;;;13.32;5.20;;;20.80;71.50;;;;;;5074214;28;20108;-70
2021/06/18 12:50:43;;;;;;;16.95;5.10;;;20.70;71.20;;;;;;5074329;28;20028;-70
2021/06/18 12:53:14;;;;;;;14.48;5.53;;;20.60;71.70;;;;;;5073815;28;20021;-70
2021/06/18 12:55:45;;;;;;;15.40;5.78;;;20.50;71.10;;;;;;5073662;28;20369;-70
2021/06/18 12:58:20;;;;;;;15.48;6.03;;;20.70;71.40;;;;;;5072313;28;20377;-68
2021/06/18 13:00:49;;;;;;;;;;;20.80;70.90;;;;;;5074542;28;20044;-67
2021/06/18 13:03:27;;;;;;;15.70;5.57;;;20.80;70.60;;;;;;5074016;28;19974;-69
2021/06/18 13:05:54;;;;;;;12.98;5.75;;;20.90;71.40;;;;;;5073914;28;20044;-68